createdAt,value
2018-09-06T00:00:11.294Z,39.73
2018-09-06T00:02:39.693Z,42.47
2018-09-06T00:05:08.129Z,41.30
2018-09-06T00:07:36.578Z,40.03
2018-09-06T00:10:05.018Z,42.33
2018-09-06T00:12:33.465Z,39.40
2018-09-06T00:15:01.878Z,40.17
2018-09-06T00:17:30.231Z,39.63
2018-09-06T00:19:58.729Z,41.73
2018-09-06T00:22:27.145Z,42.60
2018-09-06T00:24:55.553Z,41.50
2018-09-06T00:27:23.925Z,40.33
2018-09-06T00:29:52.299Z,41.30
2018-09-06T00:32:20.898Z,40.87
2018-09-06T00:34:49.365Z,42.90
2018-09-06T00:37:17.750Z,42.20
2018-09-06T00:39:46.110Z,43.67
2018-09-06T00:42:14.542Z,41.27
2018-09-06T00:44:42.976Z,41.80
2018-09-06T00:47:12.178Z,42.73
2018-09-06T00:49:40.634Z,42.17
2018-09-06T00:52:09.165Z,42.90
2018-09-06T00:54:37.528Z,42.83
2018-09-06T00:57:06.022Z,42.50
2018-09-06T00:59:34.434Z,42.90
2018-09-06T01:02:02.809Z,41.83
2018-09-06T01:04:31.343Z,41.77
2018-09-06T01:06:59.734Z,41.47
2018-09-06T01:09:28.113Z,37.43
2018-09-06T01:11:56.472Z,40.33
2018-09-06T01:14:24.946Z,41.03
2018-09-06T01:16:53.389Z,40.93
2018-09-06T01:19:21.748Z,41.53
2018-09-06T01:21:50.188Z,40.73
2018-09-06T01:24:18.548Z,43.27
2018-09-06T01:26:46.913Z,41.60
2018-09-06T01:29:15.313Z,42.80
2018-09-06T01:31:43.672Z,39.23
2018-09-06T01:34:12.126Z,38.73
2018-09-06T01:36:47.459Z,36.87
2018-09-06T01:39:16.492Z,35.13
2018-09-06T01:41:44.881Z,35.63
2018-09-06T01:44:13.262Z,37.93
2018-09-06T01:46:41.649Z,38.73
2018-09-06T01:49:10.044Z,37.90
2018-09-06T01:51:38.410Z,39.00
2018-09-06T01:54:06.790Z,39.47
2018-09-06T01:56:35.257Z,36.47
2018-09-06T01:59:03.661Z,39.17
2018-09-06T02:01:32.045Z,37.03
2018-09-06T02:04:00.530Z,36.23
2018-09-06T02:06:28.965Z,38.97
2018-09-06T02:08:58.331Z,38.83
2018-09-06T02:11:26.703Z,38.60
2018-09-06T02:13:55.184Z,38.07
2018-09-06T02:16:23.558Z,37.97
2018-09-06T02:18:52.099Z,37.63
2018-09-06T02:21:20.496Z,38.37
2018-09-06T02:23:49.714Z,39.15
2018-09-06T02:26:18.053Z,37.20
2018-09-06T02:28:46.485Z,38.20
2018-09-06T02:31:14.884Z,37.47
2018-09-06T02:33:43.265Z,37.77
2018-09-06T02:36:11.670Z,39.13
2018-09-06T02:38:40.040Z,39.43
2018-09-06T02:41:09.448Z,38.27
2018-09-06T02:43:37.833Z,36.20
2018-09-06T02:46:06.452Z,37.83
2018-09-06T02:48:42.576Z,34.53
2018-09-06T02:51:15.253Z,35.20
2018-09-06T02:53:43.847Z,36.63
2018-09-06T02:56:13.036Z,37.60
2018-09-06T02:58:41.422Z,35.50
2018-09-06T03:01:10.122Z,35.73
2018-09-06T03:03:38.565Z,39.30
2018-09-06T03:06:07.477Z,38.93
2018-09-06T03:08:35.869Z,39.20
2018-09-06T03:11:15.060Z,39.40
2018-09-06T03:13:43.461Z,39.43
2018-09-06T03:16:11.897Z,40.03
2018-09-06T03:18:40.275Z,37.60
2018-09-06T03:21:08.725Z,38.73
2018-09-06T03:23:37.149Z,39.17
2018-09-06T03:26:09.769Z,40.70
2018-09-06T03:28:38.160Z,38.67
2018-09-06T03:31:06.537Z,41.33
2018-09-06T03:33:34.966Z,37.80
2018-09-06T03:36:03.605Z,39.47
2018-09-06T03:38:32.019Z,41.27
2018-09-06T03:41:00.481Z,40.83
2018-09-06T03:43:28.894Z,41.23
2018-09-06T03:45:57.378Z,41.30
2018-09-06T03:48:25.859Z,38.43
2018-09-06T03:50:54.277Z,38.53
2018-09-06T03:53:22.705Z,38.47
2018-09-06T03:55:51.182Z,40.83
2018-09-06T03:58:20.477Z,37.63
2018-09-06T04:00:49.371Z,32.90
2018-09-06T04:03:17.940Z,40.33
2018-09-06T04:05:46.527Z,40.50
2018-09-06T04:08:14.920Z,39.47
2018-09-06T04:10:43.354Z,39.23
2018-09-06T04:13:11.769Z,36.93
2018-09-06T04:15:40.247Z,37.80
2018-09-06T04:18:08.600Z,38.27
2018-09-06T04:20:37.006Z,38.00
2018-09-06T04:23:05.421Z,36.80
2018-09-06T04:25:34.153Z,37.37
2018-09-06T04:28:02.549Z,38.03
2018-09-06T04:30:30.958Z,38.57
2018-09-06T04:32:59.293Z,37.53
2018-09-06T04:35:27.762Z,36.40
2018-09-06T04:37:56.097Z,36.50
2018-09-06T04:40:24.485Z,38.37
2018-09-06T04:42:52.871Z,37.13
2018-09-06T04:45:21.277Z,36.47
2018-09-06T04:47:49.804Z,37.03
2018-09-06T04:50:18.274Z,35.73
2018-09-06T04:52:46.691Z,35.23
2018-09-06T04:55:15.498Z,36.73
2018-09-06T04:57:43.821Z,36.87
2018-09-06T05:00:12.278Z,36.73
2018-09-06T05:02:40.685Z,35.07
2018-09-06T05:05:09.049Z,34.87
2018-09-06T05:07:37.446Z,35.70
2018-09-06T05:10:06.344Z,34.40
2018-09-06T05:12:34.792Z,35.20
2018-09-06T05:15:03.197Z,35.07
2018-09-06T05:17:32.285Z,33.87
2018-09-06T05:20:00.665Z,34.90
2018-09-06T05:22:29.112Z,35.23
2018-09-06T05:24:57.596Z,35.77
2018-09-06T05:27:25.987Z,34.33
2018-09-06T05:29:54.398Z,36.50
2018-09-06T05:32:24.609Z,35.97
2018-09-06T05:34:53.061Z,34.77
2018-09-06T05:37:21.422Z,35.47
2018-09-06T05:39:49.773Z,34.60
2018-09-06T05:42:18.191Z,35.93
2018-09-06T05:44:46.569Z,36.50
2018-09-06T05:47:14.951Z,36.67
2018-09-06T05:49:43.430Z,35.90
2018-09-06T05:52:11.801Z,35.03
2018-09-06T05:54:40.237Z,33.07
2018-09-06T05:57:08.635Z,33.33
2018-09-06T05:59:37.070Z,36.17
2018-09-06T06:02:05.462Z,37.30
2018-09-06T06:04:33.860Z,36.13
2018-09-06T06:07:02.265Z,37.47
2018-09-06T06:09:30.650Z,35.87
2018-09-06T06:11:59.181Z,37.27
2018-09-06T06:14:27.529Z,37.90
2018-09-06T06:16:56.004Z,36.30
2018-09-06T06:19:24.414Z,34.83
2018-09-06T06:21:52.860Z,36.93
2018-09-06T06:24:21.278Z,35.07
2018-09-06T06:26:50.248Z,36.30
2018-09-06T06:29:18.696Z,34.27
2018-09-06T06:31:47.147Z,36.07
2018-09-06T06:34:15.504Z,36.17
2018-09-06T06:36:44.133Z,36.43
2018-09-06T06:39:13.525Z,34.63
2018-09-06T06:41:41.938Z,33.70
2018-09-06T06:44:10.863Z,36.47
2018-09-06T06:46:39.341Z,36.87
2018-09-06T06:49:07.915Z,35.13
2018-09-06T06:51:36.298Z,36.73
2018-09-06T06:54:04.707Z,37.60
2018-09-06T06:56:33.125Z,34.93
2018-09-06T06:59:01.559Z,37.47
2018-09-06T07:01:29.925Z,37.40
2018-09-06T07:03:58.317Z,35.93
2018-09-06T07:06:26.732Z,38.03
2018-09-06T07:08:55.118Z,35.97
2018-09-06T07:11:23.478Z,37.77
2018-09-06T07:13:51.886Z,37.97
2018-09-06T07:16:20.745Z,37.40
2018-09-06T07:18:49.157Z,37.80
2018-09-06T07:21:17.598Z,37.77
2018-09-06T07:23:45.953Z,39.03
2018-09-06T07:26:14.354Z,39.47
2018-09-06T07:28:42.766Z,38.53
2018-09-06T07:31:11.141Z,40.23
2018-09-06T07:33:39.661Z,42.03
2018-09-06T07:36:08.090Z,37.10
2018-09-06T07:38:36.500Z,40.10
2018-09-06T07:41:05.020Z,40.00
2018-09-06T07:43:33.417Z,38.83
2018-09-06T07:46:01.836Z,40.17
2018-09-06T07:48:30.273Z,40.00
2018-09-06T07:50:58.665Z,39.50
2018-09-06T07:53:27.053Z,38.47
2018-09-06T07:55:55.698Z,40.83
2018-09-06T07:58:29.676Z,37.60
2018-09-06T08:00:58.244Z,35.87
2018-09-06T08:03:26.776Z,40.80
2018-09-06T08:05:55.181Z,38.33
2018-09-06T08:08:23.518Z,36.83
2018-09-06T08:10:51.930Z,40.20
2018-09-06T08:13:20.289Z,37.47
2018-09-06T08:15:48.663Z,39.03
2018-09-06T08:18:17.069Z,38.73
2018-09-06T08:20:45.469Z,38.87
2018-09-06T08:23:13.977Z,39.50
2018-09-06T08:25:42.370Z,38.33
2018-09-06T08:28:10.798Z,36.50
2018-09-06T08:30:39.260Z,31.97
2018-09-06T08:33:07.636Z,38.10
2018-09-06T08:35:36.023Z,38.17
2018-09-06T08:38:04.438Z,36.77
2018-09-06T08:40:32.798Z,40.37
2018-09-06T08:43:01.313Z,39.30
2018-09-06T08:45:29.747Z,41.60
2018-09-06T08:47:58.051Z,39.30
2018-09-06T08:50:26.473Z,41.27
2018-09-06T08:52:55.889Z,41.77
2018-09-06T08:55:24.277Z,36.67
2018-09-06T08:57:52.681Z,40.03
2018-09-06T09:00:21.328Z,40.00
2018-09-06T09:02:49.961Z,39.33
2018-09-06T09:05:18.333Z,41.97
2018-09-06T09:07:46.780Z,39.07
2018-09-06T09:10:15.189Z,37.87
2018-09-06T09:12:43.568Z,41.47
2018-09-06T09:15:11.977Z,40.17
2018-09-06T09:17:40.387Z,39.57
2018-09-06T09:20:15.405Z,39.53
2018-09-06T09:22:43.825Z,38.03
2018-09-06T09:25:12.252Z,40.83
2018-09-06T09:27:40.731Z,38.13
2018-09-06T09:30:09.142Z,15.43
2018-09-06T09:32:37.608Z,40.00
2018-09-06T09:35:06.045Z,41.83
2018-09-06T09:37:34.476Z,38.97
2018-09-06T09:40:03.104Z,40.90
2018-09-06T09:42:31.677Z,38.87
2018-09-06T09:45:00.199Z,39.10
2018-09-06T09:49:56.422Z,39.87
2018-09-06T09:52:24.812Z,39.07
2018-09-06T09:54:53.227Z,39.37
2018-09-06T09:57:21.617Z,38.90
2018-09-06T09:59:50.805Z,39.23
2018-09-06T10:02:24.698Z,37.33
2018-09-06T10:04:55.101Z,38.17
2018-09-06T10:07:28.968Z,36.53
2018-09-06T10:09:57.361Z,39.00
2018-09-06T10:12:25.853Z,37.00
2018-09-06T10:14:54.356Z,36.17
2018-09-06T10:17:22.765Z,35.67
2018-09-06T10:19:51.167Z,35.60
2018-09-06T10:22:19.644Z,36.50
2018-09-06T10:24:48.108Z,37.20
2018-09-06T10:27:16.725Z,34.27
2018-09-06T10:29:45.149Z,34.87
2018-09-06T10:32:13.547Z,36.67
2018-09-06T10:34:42.205Z,34.90
2018-09-06T10:37:10.638Z,32.30
2018-09-06T10:39:39.154Z,33.33
2018-09-06T10:42:07.604Z,35.53
2018-09-06T10:44:36.002Z,35.80
2018-09-06T10:47:04.396Z,35.73
2018-09-06T10:49:32.894Z,34.60
2018-09-06T10:52:01.298Z,33.53
2018-09-06T10:54:29.773Z,35.37
2018-09-06T10:56:58.190Z,35.80
2018-09-06T10:59:26.883Z,34.33
2018-09-06T11:01:55.346Z,33.27
2018-09-06T11:04:25.269Z,31.83
2018-09-06T11:06:53.760Z,29.40
2018-09-06T11:09:22.221Z,32.07
2018-09-06T11:11:50.804Z,25.30
2018-09-06T11:14:19.252Z,32.60
2018-09-06T11:16:47.702Z,32.10
2018-09-06T11:19:16.159Z,31.30
2018-09-06T11:21:45.277Z,31.57
2018-09-06T11:24:13.564Z,31.47
2018-09-06T11:26:41.975Z,30.63
2018-09-06T11:29:10.428Z,32.97
2018-09-06T11:31:38.876Z,32.97
2018-09-06T11:34:07.406Z,32.20
2018-09-06T11:36:35.878Z,26.67
2018-09-06T11:39:06.257Z,31.73
2018-09-06T11:41:34.666Z,32.67
2018-09-06T11:44:03.066Z,36.40
2018-09-06T11:46:31.501Z,35.90
2018-09-06T11:48:59.989Z,36.20
2018-09-06T11:51:28.684Z,28.43
2018-09-06T11:53:57.153Z,34.93
2018-09-06T11:56:25.614Z,34.73
2018-09-06T11:58:54.039Z,35.67
2018-09-06T12:01:22.433Z,36.47
2018-09-06T12:03:50.909Z,36.17
2018-09-06T12:06:19.341Z,30.50
2018-09-06T12:08:47.805Z,35.70
2018-09-06T12:11:16.249Z,25.97
2018-09-06T12:13:44.635Z,27.90
2018-09-06T12:16:14.518Z,30.33
2018-09-06T12:18:42.958Z,32.27
2018-09-06T12:21:14.960Z,30.40
2018-09-06T12:23:44.488Z,29.77
2018-09-06T12:26:13.765Z,36.47
2018-09-06T12:28:43.521Z,30.37
2018-09-06T12:31:13.910Z,33.30
2018-09-06T12:33:45.088Z,32.20
2018-09-06T12:36:14.922Z,35.53
2018-09-06T12:38:44.371Z,37.70
2018-09-06T12:41:14.211Z,35.23
2018-09-06T12:43:43.715Z,34.73
2018-09-06T12:46:13.196Z,33.17
2018-09-06T12:48:43.378Z,33.27
2018-09-06T12:51:12.390Z,29.13
2018-09-06T12:53:41.038Z,26.07
2018-09-06T12:56:09.535Z,29.43
2018-09-06T12:58:38.618Z,26.97
2018-09-06T13:01:07.428Z,29.17
2018-09-06T13:03:35.859Z,29.53
2018-09-06T13:06:04.244Z,30.07
2018-09-06T13:08:32.582Z,32.77
2018-09-06T13:11:01.102Z,33.87
2018-09-06T13:13:29.593Z,32.93
2018-09-06T13:15:57.963Z,31.03
2018-09-06T13:18:26.591Z,29.93
2018-09-06T13:20:55.124Z,27.90
2018-09-06T13:23:23.744Z,22.87
2018-09-06T14:00:07.546Z,16.57
2018-09-06T14:02:35.993Z,14.73
2018-09-06T14:05:04.854Z,10.87
2018-09-06T14:07:33.311Z,10.50
2018-09-06T14:10:02.288Z,12.97
2018-09-06T14:12:30.775Z,13.43
2018-09-06T14:14:59.247Z,10.97
2018-09-06T14:17:27.668Z,8.07
2018-09-06T14:19:56.077Z,10.37
2018-09-06T14:22:24.570Z,10.73
2018-09-06T14:24:53.055Z,7.60
2018-09-06T14:27:21.509Z,11.10
2018-09-06T14:29:50.292Z,10.87
2018-09-06T14:32:18.722Z,11.37
2018-09-06T14:34:47.176Z,11.70
2018-09-06T14:37:15.623Z,12.33
2018-09-06T14:39:44.221Z,12.07
2018-09-06T14:42:13.201Z,15.93
2018-09-06T14:44:41.638Z,12.53
2018-09-06T14:47:10.059Z,12.63
2018-09-06T14:49:38.547Z,13.90
2018-09-06T14:52:07.005Z,13.37
2018-09-06T14:54:35.513Z,7.10
2018-09-06T14:57:04.142Z,10.50
2018-09-06T14:59:32.537Z,10.57
2018-09-06T15:02:01.039Z,10.60
2018-09-06T15:04:29.476Z,9.77
2018-09-06T15:06:57.929Z,8.30
2018-09-06T15:09:26.386Z,7.80
2018-09-06T15:11:55.576Z,10.10
2018-09-06T15:14:24.437Z,7.87
2018-09-06T15:16:53.958Z,7.27
2018-09-06T15:19:22.479Z,6.97
2018-09-06T15:21:50.933Z,7.30
2018-09-06T15:24:20.016Z,8.00
2018-09-06T15:26:50.141Z,7.20
2018-09-06T15:29:18.812Z,6.93
2018-09-06T15:31:47.266Z,6.23
2018-09-06T15:34:15.860Z,6.23
2018-09-06T15:36:44.674Z,5.70
2018-09-06T15:39:13.656Z,6.00
2018-09-06T15:41:42.504Z,5.50
2018-09-06T15:44:11.227Z,5.83
2018-09-06T15:46:39.803Z,6.20
2018-09-06T15:49:08.492Z,7.50
2018-09-06T15:51:37.236Z,6.13
2018-09-06T15:54:06.177Z,6.20
2018-09-06T15:56:34.956Z,6.30
2018-09-06T15:59:03.578Z,5.87
2018-09-06T16:01:32.167Z,5.60
2018-09-06T16:04:01.766Z,6.83
2018-09-06T16:06:30.248Z,5.27
2018-09-06T16:08:59.050Z,6.30
2018-09-06T16:11:27.986Z,5.50
2018-09-06T16:13:56.911Z,4.90
2018-09-06T16:21:20.221Z,3.67
2018-09-06T16:23:48.711Z,4.10
2018-09-06T16:26:17.236Z,4.50
2018-09-06T16:28:45.851Z,4.33
2018-09-06T16:31:14.288Z,3.50
2018-09-06T16:33:42.906Z,7.17
2018-09-06T16:36:11.340Z,5.00
2018-09-06T16:38:39.784Z,4.57
2018-09-06T16:41:08.237Z,6.93
2018-09-06T16:43:36.921Z,9.73
2018-09-06T16:46:05.382Z,5.23
2018-09-06T16:48:34.053Z,5.90
2018-09-06T16:51:02.499Z,5.97
2018-09-06T16:53:31.048Z,4.97
2018-09-06T16:55:59.562Z,3.20
2018-09-06T16:58:28.031Z,3.17
2018-09-06T17:00:56.495Z,2.90
2018-09-06T17:03:24.884Z,3.80
2018-09-06T17:05:53.502Z,2.67
2018-09-06T17:08:21.913Z,2.93
2018-09-06T17:10:50.399Z,4.47
2018-09-06T17:13:19.465Z,3.27
2018-09-06T17:15:47.909Z,2.50
2018-09-06T17:18:16.397Z,2.60
2018-09-06T17:20:44.946Z,3.20
2018-09-06T17:23:13.859Z,3.53
2018-09-06T17:25:42.341Z,2.50
2018-09-06T17:28:10.842Z,3.33
2018-09-06T17:30:39.325Z,2.57
2018-09-06T17:33:08.819Z,3.30
2018-09-06T17:35:37.428Z,3.20
2018-09-06T17:38:05.887Z,2.73
2018-09-06T17:40:34.340Z,4.27
2018-09-06T17:43:02.862Z,2.80
2018-09-06T17:45:31.279Z,4.83
2018-09-06T17:47:59.708Z,3.87
2018-09-06T17:50:28.988Z,3.10
2018-09-06T17:52:57.495Z,3.20
2018-09-06T17:55:27.095Z,4.92
2018-09-06T17:57:55.550Z,4.40
2018-09-06T18:00:24.048Z,3.00
2018-09-06T18:02:52.502Z,3.10
2018-09-06T18:05:20.946Z,3.03
2018-09-06T18:07:49.444Z,3.40
2018-09-06T18:10:17.932Z,3.30
2018-09-06T18:12:46.636Z,3.67
2018-09-06T18:15:15.151Z,3.33
2018-09-06T18:17:43.687Z,3.77
2018-09-06T18:20:12.070Z,2.90
2018-09-06T18:22:40.563Z,3.03
2018-09-06T18:25:09.038Z,3.43
2018-09-06T18:27:37.569Z,3.07
2018-09-06T18:30:06.256Z,4.93
2018-09-06T18:32:34.735Z,3.07
2018-09-06T18:35:03.164Z,4.13
2018-09-06T18:37:31.763Z,3.40
2018-09-06T18:40:00.177Z,4.07
2018-09-06T18:42:28.611Z,4.03
2018-09-06T18:44:57.183Z,3.17
2018-09-06T18:47:25.672Z,3.57
2018-09-06T18:49:54.282Z,5.23
2018-09-06T18:52:22.752Z,3.87
2018-09-06T18:54:51.193Z,3.20
2018-09-06T18:57:19.668Z,4.90
2018-09-06T18:59:48.089Z,5.87
2018-09-06T19:02:16.526Z,6.53
2018-09-06T19:04:45.020Z,4.37
2018-09-06T19:07:13.437Z,5.53
2018-09-06T19:09:41.891Z,4.67
2018-09-06T19:12:10.483Z,4.27
2018-09-06T19:14:38.963Z,3.70
2018-09-06T19:17:07.429Z,5.90
2018-09-06T19:19:35.854Z,4.53
2018-09-06T19:22:04.480Z,5.23
2018-09-06T19:24:32.927Z,7.37
2018-09-06T19:27:01.347Z,5.70
2018-09-06T19:29:30.301Z,4.63
2018-09-06T19:31:59.078Z,5.60
2018-09-06T19:34:27.571Z,5.17
2018-09-06T19:36:56.348Z,5.73
2018-09-06T19:39:25.797Z,7.97
2018-09-06T19:41:54.341Z,5.90
2018-09-06T19:44:22.851Z,6.60
2018-09-06T19:46:51.337Z,5.47
2018-09-06T19:49:19.885Z,4.90
2018-09-06T19:51:48.456Z,4.90
2018-09-06T19:54:17.138Z,4.67
2018-09-06T19:56:45.675Z,5.57
2018-09-06T19:59:14.380Z,6.97
2018-09-06T20:01:43.011Z,6.77
2018-09-06T20:04:11.616Z,5.90
2018-09-06T20:06:40.124Z,4.70
2018-09-06T20:09:09.004Z,6.67
2018-09-06T20:11:37.637Z,5.17
2018-09-06T20:14:06.273Z,5.33
2018-09-06T20:16:34.855Z,7.57
2018-09-06T20:19:03.302Z,7.53
2018-09-06T20:21:31.753Z,6.13
2018-09-06T20:24:00.344Z,6.23
2018-09-06T20:26:28.873Z,5.73
2018-09-06T20:31:57.851Z,7.90
2018-09-06T20:34:26.264Z,6.13
2018-09-06T20:36:54.781Z,7.20
2018-09-06T20:39:23.285Z,4.87
2018-09-06T20:41:51.802Z,6.93
2018-09-06T20:44:20.207Z,5.53
2018-09-06T20:46:48.685Z,6.53
2018-09-06T20:49:17.147Z,7.30
2018-09-06T20:51:45.587Z,6.57
2018-09-06T20:54:14.393Z,6.63
2018-09-06T20:56:42.880Z,6.87
2018-09-06T20:59:11.516Z,9.27
2018-09-06T21:01:39.954Z,7.90
2018-09-06T21:04:08.384Z,6.07
2018-09-06T21:06:36.995Z,6.07
2018-09-06T21:09:06.417Z,7.13
2018-09-06T21:11:35.005Z,4.63
2018-09-06T21:14:03.532Z,7.27
2018-09-06T21:16:31.999Z,6.33
2018-09-06T21:19:00.500Z,8.60
2018-09-06T21:21:29.099Z,5.47
2018-09-06T21:23:57.523Z,6.70
2018-09-06T21:26:26.275Z,10.47
2018-09-06T21:28:54.811Z,4.73
2018-09-06T21:31:23.412Z,6.50
2018-09-06T21:33:51.885Z,5.43
2018-09-06T21:36:20.353Z,5.63
2018-09-06T21:38:48.767Z,5.60
2018-09-06T21:41:17.271Z,6.37
2018-09-06T21:43:45.685Z,6.47
2018-09-06T21:46:14.111Z,8.50
2018-09-06T21:48:42.526Z,6.67
2018-09-06T21:51:10.969Z,7.07
2018-09-06T21:53:39.407Z,8.73
2018-09-06T21:56:07.873Z,6.57
2018-09-06T21:58:36.340Z,7.70
2018-09-06T22:01:04.794Z,6.87
2018-09-06T22:03:38.634Z,6.97
2018-09-06T22:06:07.125Z,5.03
2018-09-06T22:08:35.544Z,7.90
2018-09-06T22:11:04.043Z,6.80
2018-09-06T22:13:32.509Z,4.63
2018-09-06T22:16:01.013Z,6.23
2018-09-06T22:18:29.533Z,7.40
2018-09-06T22:20:58.010Z,7.10
2018-09-06T22:23:26.408Z,8.03
2018-09-06T22:25:54.938Z,7.87
2018-09-06T22:28:23.483Z,5.27
2018-09-06T22:30:51.920Z,6.30
2018-09-06T22:33:20.341Z,7.00
2018-09-06T22:35:48.815Z,9.67
2018-09-06T22:38:17.251Z,7.50
2018-09-06T22:40:45.803Z,7.83
2018-09-06T22:43:14.202Z,5.90
2018-09-06T22:45:42.613Z,6.30
2018-09-06T22:48:11.057Z,6.83
2018-09-06T22:50:39.589Z,6.43
2018-09-06T22:53:08.083Z,7.90
2018-09-06T22:55:36.484Z,7.37
2018-09-06T22:58:04.948Z,6.00
2018-09-06T23:00:33.395Z,7.17
2018-09-06T23:03:07.343Z,7.57
2018-09-06T23:05:35.814Z,5.20
2018-09-06T23:08:04.355Z,7.67
2018-09-06T23:10:32.833Z,7.73
2018-09-06T23:13:01.324Z,8.23
2018-09-06T23:15:29.787Z,6.37
2018-09-06T23:18:05.666Z,6.67
2018-09-06T23:20:34.131Z,7.87
2018-09-06T23:23:02.648Z,6.73
2018-09-06T23:25:31.054Z,6.90
2018-09-06T23:27:59.481Z,5.97
2018-09-06T23:30:27.927Z,6.20
2018-09-06T23:32:56.339Z,6.73
2018-09-06T23:35:24.777Z,6.13
2018-09-06T23:37:53.200Z,8.40
2018-09-06T23:40:22.275Z,7.73
2018-09-06T23:42:50.712Z,7.17
2018-09-06T23:45:19.126Z,10.07
2018-09-06T23:47:47.548Z,5.77
2018-09-06T23:50:16.001Z,6.93
2018-09-06T23:52:44.445Z,6.97
2018-09-06T23:55:12.841Z,7.70
2018-09-06T23:57:41.294Z,6.27
